Time;durP1;ratioP1;P1;durP2;ratioP2;P2;SDS_P1;SDS_P2;PMS_P1;PMS_P2;Temp;Humidity;BMP_temperature;BMP_pressure;BME280_temperature;BME280_humidity;BME280_pressure;Samples;Min_cycle;Max_cycle;Signal;HPM_P1;HPM_P2
2021/03/05 00:01:00;;;;;;;9.10;2.28;;;6.40;71.80;;;;;;5113446;28;20028;-72
2021/03/05 00:03:25;;;;;;;7.68;2.10;;;6.40;71.70;;;;;;5112426;28;20031;-71
2021/03/05 00:05:52;;;;;;;7.13;2.33;;;6.40;71.70;;;;;;5114521;28;20463;-71
2021/03/05 00:08:18;;;;;;;5.40;1.67;;;6.30;71.60;;;;;;5114168;28;20036;-72
2021/03/05 00:10:45;;;;;;;7.18;2.13;;;6.30;71.60;;;;;;5114094;28;20020;-72
2021/03/05 00:13:11;;;;;;;13.23;2.95;;;6.30;71.50;;;;;;5110353;28;20039;-72
2021/03/05 00:15:40;;;;;;;7.45;2.00;;;6.30;71.50;;;;;;5113493;28;20020;-72
2021/03/05 00:18:06;;;;;;;11.30;1.83;;;6.30;71.50;;;;;;5114413;28;20385;-72
2021/03/05 00:20:33;;;;;;;7.15;2.60;;;6.30;71.40;;;;;;5113867;28;20032;-72
2021/03/05 00:22:59;;;;;;;7.55;1.92;;;6.30;71.30;;;;;;5112609;28;20075;-71
2021/03/05 00:25:26;;;;;;;9.43;2.40;;;6.30;71.20;;;;;;5114207;28;20051;-72
2021/03/05 00:27:51;;;;;;;6.88;2.03;;;6.30;71.10;;;;;;5114199;28;20039;-71
2021/03/05 00:30:18;;;;;;;9.32;2.05;;;6.30;71.00;;;;;;5113343;28;20378;-72
2021/03/05 00:32:44;;;;;;;6.07;2.47;;;6.30;71.00;;;;;;5113921;28;20084;-72
2021/03/05 00:35:14;;;;;;;7.55;2.03;;;6.20;70.80;;;;;;5114083;28;20032;-72
2021/03/05 00:37:40;;;;;;;5.28;2.15;;;6.20;70.70;;;;;;5113274;28;20035;-71
2021/03/05 00:40:09;;;;;;;3.17;1.55;;;6.10;70.60;;;;;;5112672;28;20023;-72
2021/03/05 00:42:34;;;;;;;5.38;1.75;;;6.10;70.70;;;;;;5113605;28;20475;-72
2021/03/05 00:45:00;;;;;;;2.67;1.33;;;6.10;70.90;;;;;;5111658;28;20241;-72
2021/03/05 00:47:26;;;;;;;6.88;2.03;;;6.00;71.20;;;;;;5112616;28;20032;-72
2021/03/05 00:49:55;;;;;;;4.20;1.75;;;6.00;71.30;;;;;;5113481;28;20043;-71
2021/03/05 00:52:21;;;;;;;2.90;1.42;;;6.00;71.50;;;;;;5111835;28;20039;-71
2021/03/05 00:54:47;;;;;;;4.70;1.48;;;5.90;71.80;;;;;;5113488;28;20375;-71
2021/03/05 00:57:12;;;;;;;3.03;1.50;;;5.90;72.30;;;;;;5108730;28;20031;-71
2021/03/05 00:59:38;;;;;;;4.00;1.33;;;5.80;72.40;;;;;;5108709;28;20024;-71
2021/03/05 01:02:04;;;;;;;4.55;1.38;;;5.80;72.30;;;;;;5112167;28;20038;-71
2021/03/05 01:04:30;;;;;;;3.38;1.55;;;5.80;72.40;;;;;;5113160;28;20031;-71
2021/03/05 01:06:58;;;;;;;1.38;1.02;;;5.80;72.50;;;;;;5114879;28;20359;-71
2021/03/05 01:09:26;;;;;;;3.83;1.38;;;5.80;72.40;;;;;;5112239;28;20110;-71
2021/03/05 01:11:52;;;;;;;3.05;1.30;;;5.80;72.90;;;;;;5112143;28;20039;-72
2021/03/05 01:14:20;;;;;;;4.38;1.20;;;5.80;72.10;;;;;;5113499;28;20032;-72
2021/03/05 01:16:46;;;;;;;4.65;1.48;;;5.80;72.00;;;;;;5113332;28;20028;-71
2021/03/05 01:19:13;;;;;;;4.60;1.27;;;5.70;71.80;;;;;;5112361;28;20403;-72
2021/03/05 01:21:40;;;;;;;1.95;1.30;;;5.70;71.60;;;;;;5113327;28;20512;-71
2021/03/05 01:24:06;;;;;;;2.92;1.30;;;5.70;71.50;;;;;;5112791;28;20134;-71
2021/03/05 01:26:32;;;;;;;8.38;1.33;;;5.80;71.40;;;;;;5112683;28;20034;-71
2021/03/05 01:28:58;;;;;;;2.95;1.02;;;5.80;71.40;;;;;;5113070;28;20024;-71
2021/03/05 01:31:24;;;;;;;6.63;1.20;;;5.80;71.30;;;;;;5113107;28;20031;-71
2021/03/05 01:33:49;;;;;;;2.67;1.23;;;5.80;71.20;;;;;;5112348;28;20028;-71
2021/03/05 01:36:15;;;;;;;1.83;1.02;;;5.80;70.90;;;;;;5112871;28;20028;-72
2021/03/05 01:38:41;;;;;;;1.58;1.20;;;5.80;70.70;;;;;;5112611;28;20043;-71
2021/03/05 01:41:06;;;;;;;0.85;0.80;;;5.80;70.60;;;;;;5112263;28;20363;-71
2021/03/05 01:43:34;;;;;;;3.15;1.20;;;5.80;70.50;;;;;;5113038;28;20092;-71
2021/03/05 01:46:00;;;;;;;3.13;1.02;;;5.80;70.30;;;;;;5112765;28;20023;-71
2021/03/05 01:48:27;;;;;;;2.58;1.30;;;5.80;70.00;;;;;;5112310;28;20026;-71
2021/03/05 01:51:09;;;;;;;2.00;1.00;;;5.80;69.70;;;;;;5113200;28;20028;-71
2021/03/05 01:53:35;;;;;;;3.97;1.30;;;5.90;69.70;;;;;;5100755;28;20027;-71
2021/03/05 01:56:02;;;;;;;6.75;1.17;;;5.90;69.70;;;;;;5111041;28;20057;-72
2021/03/05 01:58:28;;;;;;;1.33;0.75;;;5.90;70.50;;;;;;5112978;28;20062;-71
2021/03/05 02:00:59;;;;;;;3.70;1.02;;;5.80;71.30;;;;;;5111212;28;20066;-71
2021/03/05 02:03:29;;;;;;;7.07;1.80;;;5.80;72.30;;;;;;5110415;28;20436;-71
2021/03/05 02:05:55;;;;;;;13.05;1.60;;;5.70;73.20;;;;;;5112763;28;20039;-71
2021/03/05 02:08:20;;;;;;;9.70;1.33;;;5.70;74.00;;;;;;5112029;28;20443;-71
2021/03/05 02:10:46;;;;;;;10.90;1.92;;;5.70;74.60;;;;;;5109271;28;20509;-71
2021/03/05 02:13:12;;;;;;;7.05;1.55;;;5.60;75.10;;;;;;5101986;28;20081;-72
2021/03/05 02:15:39;;;;;;;4.85;2.65;;;5.60;75.60;;;;;;5112059;28;20051;-72
2021/03/05 02:18:38;;;;;;;6.78;1.30;;;5.60;76.10;;;;;;5112716;28;20035;-71
2021/03/05 02:21:26;;;;;;;11.10;1.45;;;5.40;77.00;;;;;;5097765;28;20028;-72
2021/03/05 02:24:28;;;;;;;4.85;0.85;;;5.40;77.20;;;;;;5111957;28;20062;-72
2021/03/05 02:27:13;;;;;;;4.53;0.75;;;5.40;77.70;;;;;;5102610;28;20035;-72
2021/03/05 02:30:21;;;;;;;8.75;1.50;;;5.30;77.90;;;;;;5111798;28;20027;-72
2021/03/05 02:33:11;;;;;;;1.33;0.93;;;5.30;77.80;;;;;;5112669;28;20071;-72
2021/03/05 02:35:38;;;;;;;5.15;1.60;;;5.30;77.70;;;;;;5112470;28;20035;-72
2021/03/05 02:38:09;;;;;;;5.43;1.60;;;5.20;77.20;;;;;;5097418;28;20401;-72
2021/03/05 02:40:39;;;;;;;3.55;0.80;;;5.20;76.70;;;;;;5112844;28;20035;-71
2021/03/05 02:43:08;;;;;;;2.05;1.05;;;5.20;75.90;;;;;;5112268;28;20044;-72
2021/03/05 02:45:38;;;;;;;4.22;1.48;;;5.20;76.10;;;;;;5112241;28;20818;-72
2021/03/05 02:48:12;;;;;;;4.63;1.50;;;5.20;75.80;;;;;;5115922;28;20102;-72
2021/03/05 02:50:41;;;;;;;6.40;1.27;;;5.20;75.10;;;;;;5115362;28;20662;-72
2021/03/05 02:53:12;;;;;;;5.25;1.42;;;5.20;74.70;;;;;;5116275;28;20039;-72
2021/03/05 02:55:40;;;;;;;10.20;1.27;;;5.20;74.20;;;;;;5116251;28;20031;-72
2021/03/05 02:58:08;;;;;;;4.60;1.15;;;5.20;73.50;;;;;;5115161;28;20023;-71
2021/03/05 03:00:34;;;;;;;8.88;1.63;;;5.20;73.80;;;;;;5115907;28;20028;-71
2021/03/05 03:03:01;;;;;;;3.25;1.05;;;5.20;72.60;;;;;;5115716;28;20496;-71
2021/03/05 03:05:29;;;;;;;4.00;1.00;;;5.20;72.40;;;;;;5113366;28;20044;-71
2021/03/05 03:07:57;;;;;;;6.50;0.98;;;5.20;72.10;;;;;;5114532;28;20035;-70
2021/03/05 03:10:27;;;;;;;4.45;1.17;;;5.20;71.80;;;;;;5113152;28;20047;-71
2021/03/05 03:12:58;;;;;;;6.28;1.15;;;5.20;71.70;;;;;;5103742;28;20122;-71
2021/03/05 03:15:27;;;;;;;1.73;0.93;;;5.20;71.50;;;;;;5115500;28;20034;-71
2021/03/05 03:17:55;;;;;;;4.55;1.10;;;5.20;71.30;;;;;;5115326;28;20042;-71
2021/03/05 03:20:23;;;;;;;3.35;1.00;;;5.20;71.20;;;;;;5114779;28;20047;-71
2021/03/05 03:22:49;;;;;;;5.20;0.93;;;5.20;71.80;;;;;;5113856;28;20502;-73
2021/03/05 03:25:16;;;;;;;6.35;1.25;;;5.20;71.30;;;;;;5115220;28;20032;-72
2021/03/05 03:27:43;;;;;;;4.97;1.00;;;5.20;71.20;;;;;;5114600;28;20094;-72
2021/03/05 03:30:10;;;;;;;7.30;1.10;;;5.10;70.90;;;;;;5115122;28;20066;-71
2021/03/05 03:32:38;;;;;;;3.53;0.93;;;5.10;70.80;;;;;;5114329;28;20531;-72
2021/03/05 03:35:06;;;;;;;3.25;1.00;;;5.10;70.50;;;;;;5115307;28;20107;-72
2021/03/05 03:37:33;;;;;;;5.47;0.95;;;5.10;70.70;;;;;;5115183;28;20036;-72
2021/03/05 03:40:00;;;;;;;9.73;1.33;;;5.00;70.50;;;;;;5114525;28;20034;-71
2021/03/05 03:42:26;;;;;;;5.55;1.10;;;5.10;70.30;;;;;;5114878;28;20083;-71
2021/03/05 03:44:52;;;;;;;4.75;1.02;;;5.00;69.90;;;;;;5115060;28;20036;-72
2021/03/05 03:47:22;;;;;;;5.18;1.15;;;5.00;69.80;;;;;;5114430;28;20471;-72
2021/03/05 03:49:56;;;;;;;1.73;1.00;;;5.00;69.50;;;;;;5114749;28;20060;-71
2021/03/05 03:52:29;;;;;;;5.13;1.23;;;5.00;69.30;;;;;;5115008;28;20027;-72
2021/03/05 03:54:56;;;;;;;3.33;1.10;;;5.00;69.00;;;;;;5113982;28;20485;-72
2021/03/05 03:57:23;;;;;;;1.90;1.00;;;5.00;68.70;;;;;;5114715;28;20091;-72
2021/03/05 03:59:51;;;;;;;3.88;0.85;;;5.00;68.60;;;;;;5114393;28;20551;-71
2021/03/05 04:02:24;;;;;;;4.03;1.10;;;5.00;68.50;;;;;;5114303;28;20031;-71
2021/03/05 04:04:50;;;;;;;7.15;1.30;;;5.00;68.30;;;;;;5114561;28;20115;-71
2021/03/05 04:07:18;;;;;;;2.25;1.00;;;5.00;68.30;;;;;;5114431;28;20042;-72
2021/03/05 04:09:45;;;;;;;8.32;1.25;;;4.90;68.30;;;;;;5113845;28;20152;-71
2021/03/05 04:12:11;;;;;;;2.85;0.90;;;5.00;68.40;;;;;;5100288;28;20462;-71
2021/03/05 04:14:37;;;;;;;3.65;1.15;;;4.90;68.30;;;;;;5114283;28;20019;-71
2021/03/05 04:17:03;;;;;;;1.85;0.80;;;4.90;68.20;;;;;;5113696;28;20027;-72
2021/03/05 04:19:29;;;;;;;2.33;0.95;;;4.90;68.00;;;;;;5114380;28;20032;-71
2021/03/05 04:21:56;;;;;;;7.22;1.40;;;4.90;67.90;;;;;;5113595;28;20034;-71
2021/03/05 04:24:21;;;;;;;12.50;1.55;;;4.90;67.80;;;;;;5113687;28;20130;-71
2021/03/05 04:26:47;;;;;;;8.60;1.15;;;4.90;67.70;;;;;;5114402;28;20110;-71
2021/03/05 04:29:13;;;;;;;9.82;1.17;;;4.90;67.60;;;;;;5113337;28;20554;-72
2021/03/05 04:31:38;;;;;;;6.70;1.38;;;4.90;67.30;;;;;;5114281;28;20076;-71
2021/03/05 04:34:04;;;;;;;7.47;1.17;;;4.90;66.80;;;;;;5113953;28;20455;-71
2021/03/05 04:36:30;;;;;;;9.63;0.80;;;4.90;66.50;;;;;;5113365;28;20122;-71
2021/03/05 04:38:56;;;;;;;4.63;1.02;;;4.90;66.60;;;;;;5113935;28;20030;-71
2021/03/05 04:41:21;;;;;;;7.72;1.13;;;4.80;66.60;;;;;;5113902;28;20081;-71
2021/03/05 04:43:47;;;;;;;8.30;1.52;;;4.80;66.70;;;;;;5112910;28;20035;-71
2021/03/05 04:46:13;;;;;;;2.67;1.20;;;4.80;66.90;;;;;;5113704;28;20027;-71
2021/03/05 04:48:39;;;;;;;5.28;0.98;;;4.80;67.00;;;;;;5113935;28;20031;-71
2021/03/05 04:51:04;;;;;;;1.95;0.73;;;4.70;67.00;;;;;;5112907;28;20024;-71
2021/03/05 04:53:30;;;;;;;1.52;0.70;;;4.80;66.80;;;;;;5113821;27;20023;-71
2021/03/05 04:55:56;;;;;;;3.63;0.98;;;4.70;66.70;;;;;;5113358;28;20027;-71
2021/03/05 04:58:21;;;;;;;3.15;0.70;;;4.70;66.90;;;;;;5113094;28;20019;-71
2021/03/05 05:00:47;;;;;;;5.43;0.90;;;4.70;67.00;;;;;;5113734;28;20027;-71
2021/03/05 05:03:13;;;;;;;1.60;0.70;;;4.70;66.90;;;;;;5113194;28;20500;-71
2021/03/05 05:05:39;;;;;;;3.05;1.05;;;4.60;66.90;;;;;;5113154;28;20047;-72
2021/03/05 05:08:06;;;;;;;1.85;0.73;;;4.60;66.90;;;;;;5113013;28;20478;-71
2021/03/05 05:10:32;;;;;;;3.35;0.95;;;4.60;66.90;;;;;;5109323;28;20057;-71
2021/03/05 05:12:58;;;;;;;3.92;1.00;;;4.60;66.90;;;;;;5102689;28;20028;-72
2021/03/05 05:15:23;;;;;;;3.00;1.00;;;4.60;66.80;;;;;;5113148;28;20038;-71
2021/03/05 05:17:49;;;;;;;1.40;1.00;;;4.60;66.80;;;;;;5113305;28;20073;-71
2021/03/05 05:20:15;;;;;;;3.25;1.20;;;4.60;66.50;;;;;;5112853;28;20027;-71
2021/03/05 05:22:41;;;;;;;4.85;0.95;;;4.60;66.00;;;;;;5112696;28;20039;-72
2021/03/05 05:25:07;;;;;;;2.20;0.98;;;4.60;66.00;;;;;;5112572;28;20217;-71
2021/03/05 05:27:34;;;;;;;2.25;0.73;;;4.50;65.90;;;;;;5109013;28;20085;-72
2021/03/05 05:30:00;;;;;;;1.30;0.88;;;4.50;66.10;;;;;;5103151;28;20057;-71
2021/03/05 05:32:25;;;;;;;0.73;0.73;;;4.50;66.20;;;;;;5112459;28;20035;-71
2021/03/05 05:34:51;;;;;;;4.68;1.05;;;4.50;66.30;;;;;;5113348;28;20038;-72
2021/03/05 05:37:17;;;;;;;2.72;0.90;;;4.50;66.50;;;;;;5113048;28;20123;-71
2021/03/05 05:39:42;;;;;;;9.73;0.93;;;4.50;66.50;;;;;;5097963;28;20035;-71
2021/03/05 05:42:08;;;;;;;3.65;0.90;;;4.50;66.50;;;;;;5113183;28;20023;-71
2021/03/05 05:44:35;;;;;;;5.05;1.13;;;4.50;66.50;;;;;;5112864;28;20390;-71
2021/03/05 05:47:01;;;;;;;5.78;1.25;;;4.50;67.00;;;;;;5112395;28;20207;-71
2021/03/05 05:49:28;;;;;;;5.00;1.08;;;4.40;66.20;;;;;;5112927;28;20028;-71
2021/03/05 05:51:59;;;;;;;2.75;0.70;;;4.40;66.00;;;;;;5112792;28;20458;-71
2021/03/05 05:54:26;;;;;;;2.88;1.60;;;4.40;65.90;;;;;;5111119;28;20042;-71
2021/03/05 05:56:52;;;;;;;3.53;0.90;;;4.50;65.90;;;;;;5112893;28;20498;-71
2021/03/05 05:59:18;;;;;;;4.45;1.10;;;4.40;65.90;;;;;;5112927;28;20391;-71
2021/03/05 06:01:46;;;;;;;3.47;0.80;;;4.40;65.90;;;;;;5112228;28;20024;-71
2021/03/05 06:04:14;;;;;;;2.00;0.85;;;4.40;65.80;;;;;;5112802;28;20043;-71
2021/03/05 06:06:41;;;;;;;2.08;1.08;;;4.40;65.70;;;;;;5112500;28;20387;-71
2021/03/05 06:09:06;;;;;;;7.75;1.10;;;4.50;65.70;;;;;;5112597;28;20028;-71
2021/03/05 06:11:40;;;;;;;4.53;0.90;;;4.40;65.70;;;;;;5100681;28;20089;-71
2021/03/05 06:14:11;;;;;;;2.15;1.00;;;4.40;65.60;;;;;;5111625;28;20034;-71
2021/03/05 06:16:51;;;;;;;1.70;0.90;;;4.40;65.50;;;;;;5112348;28;20043;-71
2021/03/05 06:19:21;;;;;;;1.67;0.98;;;4.40;65.50;;;;;;5112129;28;20462;-71
2021/03/05 06:21:48;;;;;;;3.50;1.08;;;4.50;65.50;;;;;;5099416;28;20035;-76
2021/03/05 06:24:14;;;;;;;6.75;1.02;;;4.40;66.00;;;;;;5114982;27;20051;-73
2021/03/05 06:27:00;;;;;;;9.57;1.17;;;4.40;65.40;;;;;;5116035;28;20023;-70
2021/03/05 06:29:38;;;;;;;3.85;0.70;;;4.40;65.40;;;;;;5106426;28;20046;-69
2021/03/05 06:32:04;;;;;;;9.88;1.05;;;4.40;65.40;;;;;;5098362;28;20478;-73
2021/03/05 06:34:52;;;;;;;5.47;1.00;;;4.40;65.40;;;;;;5103180;28;20065;-73
2021/03/05 06:37:20;;;;;;;7.63;1.10;;;4.40;65.30;;;;;;5103081;28;20475;-71
2021/03/05 06:40:00;;;;;;;8.32;1.05;;;4.40;65.30;;;;;;5102834;28;20027;-72
2021/03/05 06:42:26;;;;;;;7.30;0.98;;;4.40;65.40;;;;;;5096945;28;20048;-72
2021/03/05 06:44:55;;;;;;;4.53;1.75;;;4.40;65.40;;;;;;5094639;27;20023;-72
2021/03/05 06:47:22;;;;;;;1.50;0.80;;;4.40;65.40;;;;;;5093752;28;20035;-71
2021/03/05 06:49:49;;;;;;;2.67;1.00;;;4.40;65.50;;;;;;5098205;28;20031;-71
2021/03/05 06:52:17;;;;;;;3.65;1.20;;;4.40;65.70;;;;;;5099019;28;20032;-71
2021/03/05 06:54:44;;;;;;;0.90;0.70;;;4.40;65.90;;;;;;5096705;28;20057;-76
2021/03/05 06:57:12;;;;;;;2.55;0.85;;;4.40;66.00;;;;;;5092698;28;20051;-77
2021/03/05 06:59:45;;;;;;;1.55;0.90;;;4.50;66.10;;;;;;5097474;28;20036;-70
2021/03/05 07:02:15;;;;;;;8.82;1.15;;;4.50;66.10;;;;;;5093407;28;20140;-72
2021/03/05 07:04:51;;;;;;;2.17;0.85;;;4.40;66.30;;;;;;5104911;28;20092;-73
2021/03/05 07:07:18;;;;;;;1.65;0.80;;;4.50;66.40;;;;;;5092324;28;20106;-73
2021/03/05 07:09:47;;;;;;;1.77;0.80;;;4.40;66.50;;;;;;5096221;28;20036;-73
2021/03/05 07:12:18;;;;;;;4.05;0.98;;;4.50;66.70;;;;;;5100245;28;20024;-68
2021/03/05 07:14:49;;;;;;;2.80;0.90;;;4.50;66.90;;;;;;5114005;28;20070;-74
2021/03/05 07:17:17;;;;;;;1.75;1.30;;;4.50;67.10;;;;;;5096576;28;20023;-70
2021/03/05 07:19:43;;;;;;;3.60;1.10;;;4.50;67.30;;;;;;5089039;28;20070;-72
2021/03/05 07:22:10;;;;;;;10.23;1.40;;;4.50;67.50;;;;;;5106701;28;20063;-72
2021/03/05 07:24:38;;;;;;;3.67;0.90;;;4.50;67.60;;;;;;5110301;28;20500;-72
2021/03/05 07:27:06;;;;;;;6.40;1.02;;;4.60;67.70;;;;;;5109896;28;20050;-75
2021/03/05 07:29:46;;;;;;;1.30;1.10;;;4.60;67.80;;;;;;5105867;28;20036;-72
2021/03/05 07:32:15;;;;;;;2.83;1.20;;;4.50;67.90;;;;;;5109024;28;20431;-72
2021/03/05 07:34:51;;;;;;;6.65;1.50;;;4.60;68.10;;;;;;5102686;28;20023;-74
2021/03/05 07:37:18;;;;;;;1.05;1.00;;;4.60;68.30;;;;;;5105068;28;20042;-74
2021/03/05 07:39:49;;;;;;;7.32;1.60;;;4.60;68.50;;;;;;5099951;28;20031;-72
2021/03/05 07:42:16;;;;;;;3.22;1.17;;;4.60;68.70;;;;;;5112772;28;20024;-72
2021/03/05 07:44:48;;;;;;;6.18;1.20;;;4.50;68.90;;;;;;5113673;27;20020;-72
2021/03/05 07:47:15;;;;;;;1.95;1.15;;;4.60;69.00;;;;;;5113449;28;20038;-72
2021/03/05 07:49:42;;;;;;;5.18;1.00;;;4.60;69.20;;;;;;5111520;28;20027;-71
2021/03/05 07:52:09;;;;;;;5.07;1.30;;;4.60;69.30;;;;;;5113023;28;20020;-72
2021/03/05 07:54:45;;;;;;;7.53;1.23;;;4.70;69.50;;;;;;5112728;28;20028;-72
2021/03/05 07:57:19;;;;;;;3.88;0.90;;;4.60;69.70;;;;;;5113702;28;20031;-71
2021/03/05 07:59:47;;;;;;;4.20;1.00;;;4.70;70.50;;;;;;5113088;28;20042;-71
2021/03/05 08:02:14;;;;;;;1.58;0.98;;;4.60;70.00;;;;;;5111062;28;20028;-71
2021/03/05 08:04:53;;;;;;;2.05;1.50;;;4.60;70.10;;;;;;5108103;28;20134;-69
2021/03/05 08:07:20;;;;;;;2.45;0.98;;;4.60;70.40;;;;;;5097892;28;20036;-71
2021/03/05 08:09:47;;;;;;;2.28;1.10;;;4.60;70.40;;;;;;5108430;28;20042;-71
2021/03/05 08:15:13;;;;;;;5.18;1.00;;;4.60;70.90;;;;;;5111703;28;20035;-70
2021/03/05 08:17:44;;;;;;;0.80;0.80;;;4.70;71.00;;;;;;5101856;28;20468;-70
2021/03/05 08:20:30;;;;;;;8.30;1.13;;;4.70;71.10;;;;;;5106043;28;20024;-69
2021/03/05 08:22:59;;;;;;;2.58;1.33;;;4.70;71.10;;;;;;5098869;28;20372;-69
2021/03/05 08:25:29;;;;;;;1.08;0.90;;;4.80;71.10;;;;;;5094945;28;20396;-68
2021/03/05 08:27:56;;;;;;;4.03;0.98;;;4.80;71.00;;;;;;5089902;28;20032;-73
2021/03/05 08:30:35;;;;;;;8.57;1.17;;;4.90;71.60;;;;;;5100425;28;20114;-71
2021/03/05 08:33:03;;;;;;;3.65;1.05;;;5.00;70.90;;;;;;5108090;28;20383;-70
2021/03/05 08:35:29;;;;;;;2.72;1.00;;;5.00;70.90;;;;;;5111984;28;20034;-70
2021/03/05 08:38:05;;;;;;;1.77;0.80;;;5.10;70.90;;;;;;5112694;28;20031;-70
2021/03/05 08:40:34;;;;;;;7.03;1.02;;;5.10;70.90;;;;;;5105146;28;20028;-73
2021/03/05 08:43:09;;;;;;;2.97;0.80;;;5.10;70.90;;;;;;5111265;28;20089;-69
2021/03/05 08:45:44;;;;;;;3.03;1.13;;;5.20;70.80;;;;;;5112065;28;20020;-71
2021/03/05 08:48:15;;;;;;;2.78;1.20;;;5.20;70.70;;;;;;5108492;28;20467;-71
2021/03/05 08:50:42;;;;;;;4.03;1.02;;;5.20;70.50;;;;;;5112004;28;20057;-71
2021/03/05 08:53:15;;;;;;;3.60;0.90;;;5.20;70.90;;;;;;5111900;28;20028;-72
2021/03/05 08:55:42;;;;;;;10.48;1.10;;;5.20;70.10;;;;;;5112355;28;20454;-71
2021/03/05 08:58:08;;;;;;;2.78;0.80;;;5.30;70.60;;;;;;5111902;28;20035;-70
2021/03/05 09:00:35;;;;;;;6.13;1.20;;;5.30;69.70;;;;;;5112705;28;20080;-70
2021/03/05 09:03:05;;;;;;;4.60;1.13;;;5.30;69.00;;;;;;5111971;28;20447;-70
2021/03/05 09:05:33;;;;;;;8.68;1.00;;;5.30;68.10;;;;;;5110939;28;20043;-70
2021/03/05 09:07:59;;;;;;;0.90;0.77;;;5.30;67.70;;;;;;5110937;28;20042;-71
2021/03/05 09:10:44;;;;;;;3.90;1.00;;;5.40;67.60;;;;;;5110033;28;20033;-71
2021/03/05 09:13:12;;;;;;;1.23;0.98;;;5.40;67.40;;;;;;5110470;28;20110;-71
2021/03/05 09:15:44;;;;;;;8.02;1.10;;;5.50;67.40;;;;;;5110202;28;20030;-71
2021/03/05 09:18:13;;;;;;;6.70;1.35;;;5.60;67.10;;;;;;5109241;28;20028;-71
2021/03/05 09:20:48;;;;;;;1.42;1.00;;;5.60;66.70;;;;;;5112049;28;20103;-71
2021/03/05 09:23:36;;;;;;;4.15;0.80;;;5.70;66.50;;;;;;5111134;28;20048;-69
2021/03/05 09:26:07;;;;;;;1.05;0.77;;;5.80;66.00;;;;;;5093652;28;20038;-76
2021/03/05 09:28:59;;;;;;;2.35;0.98;;;5.90;65.70;;;;;;5111115;28;20110;-71
2021/03/05 09:31:26;;;;;;;4.85;0.90;;;6.00;64.70;;;;;;5108167;28;20036;-71
2021/03/05 09:33:52;;;;;;;1.75;0.90;;;6.00;64.40;;;;;;5110824;28;20032;-72
2021/03/05 09:36:20;;;;;;;1.08;0.70;;;6.10;64.00;;;;;;5110850;28;20027;-72
2021/03/05 09:38:54;;;;;;;7.15;0.95;;;6.10;64.10;;;;;;5110599;28;20028;-72
2021/03/05 09:41:22;;;;;;;2.65;1.23;;;6.10;64.20;;;;;;5110537;28;20036;-71
2021/03/05 09:44:03;;;;;;;1.25;0.82;;;6.20;64.20;;;;;;5107245;28;20046;-71
2021/03/05 09:46:37;;;;;;;2.58;0.90;;;6.20;63.80;;;;;;5110715;28;20051;-72
2021/03/05 09:49:23;;;;;;;4.18;0.90;;;6.30;64.00;;;;;;5101810;28;20032;-70
2021/03/05 09:51:49;;;;;;;5.20;0.90;;;6.30;63.90;;;;;;5110240;28;20063;-70
2021/03/05 09:54:15;;;;;;;1.80;0.93;;;6.40;63.80;;;;;;5107404;28;20112;-71
2021/03/05 09:56:44;;;;;;;0.70;0.70;;;6.40;63.90;;;;;;5114591;28;20027;-70
2021/03/05 09:59:10;;;;;;;0.55;0.55;;;6.40;63.70;;;;;;5114388;28;20019;-71
2021/03/05 10:01:41;;;;;;;2.08;0.90;;;6.50;63.90;;;;;;5110032;28;20114;-70
2021/03/05 10:04:09;;;;;;;2.10;1.10;;;6.50;63.40;;;;;;5109330;28;20048;-70
2021/03/05 10:06:35;;;;;;;3.28;0.88;;;6.60;63.20;;;;;;5099405;28;20092;-70
2021/03/05 10:09:12;;;;;;;3.05;0.98;;;6.60;63.00;;;;;;5101175;28;20040;-71
2021/03/05 10:11:43;;;;;;;3.03;1.75;;;6.60;63.00;;;;;;5110739;28;20027;-71
2021/03/05 10:14:23;;;;;;;2.55;1.30;;;6.70;63.70;;;;;;5109538;28;20043;-70
2021/03/05 10:16:50;;;;;;;7.53;1.15;;;6.70;63.60;;;;;;5111027;28;20555;-70
2021/03/05 10:19:23;;;;;;;2.53;1.10;;;6.70;64.10;;;;;;5107901;28;20059;-71
2021/03/05 10:21:50;;;;;;;2.37;0.90;;;6.70;64.20;;;;;;5105452;28;20114;-71
2021/03/05 10:24:18;;;;;;;5.45;1.25;;;6.80;64.60;;;;;;5106384;28;20055;-71
2021/03/05 10:27:25;;;;;;;7.10;1.00;;;6.80;64.40;;;;;;5098145;28;20391;-71
2021/03/05 10:29:52;;;;;;;3.03;0.75;;;6.90;64.50;;;;;;5106670;28;20050;-71
2021/03/05 10:32:25;;;;;;;5.80;0.85;;;7.00;64.60;;;;;;5113873;28;20016;-71
2021/03/05 10:34:53;;;;;;;4.25;0.88;;;6.90;65.90;;;;;;5111278;28;20201;-71
2021/03/05 10:37:19;;;;;;;2.88;0.95;;;6.90;65.80;;;;;;5113873;28;20024;-72
2021/03/05 10:39:46;;;;;;;3.63;0.90;;;6.90;66.50;;;;;;5113566;28;20028;-71
2021/03/05 10:42:14;;;;;;;2.70;0.90;;;6.90;66.70;;;;;;5096324;28;20044;-71
2021/03/05 10:44:41;;;;;;;4.70;0.82;;;6.90;65.80;;;;;;5113532;28;20489;-71
2021/03/05 10:47:09;;;;;;;2.90;0.98;;;6.90;66.40;;;;;;5113750;28;20114;-71
2021/03/05 10:49:38;;;;;;;2.17;1.08;;;6.90;66.50;;;;;;5109326;28;20160;-73
2021/03/05 10:52:05;;;;;;;6.18;1.27;;;6.90;66.70;;;;;;5104106;28;20043;-70
2021/03/05 10:54:31;;;;;;;4.45;1.25;;;6.80;66.90;;;;;;5099413;28;20481;-70
2021/03/05 10:56:57;;;;;;;4.65;0.77;;;6.80;66.60;;;;;;5098466;28;20028;-70
2021/03/05 10:59:24;;;;;;;2.00;1.05;;;6.90;66.20;;;;;;5112683;28;20024;-72
2021/03/05 11:01:53;;;;;;;6.97;1.10;;;6.90;66.60;;;;;;5110136;28;20118;-70
2021/03/05 11:04:22;;;;;;;1.77;0.50;;;7.00;67.00;;;;;;5101522;28;20067;-73
2021/03/05 11:06:49;;;;;;;4.30;1.08;;;7.00;67.10;;;;;;5095427;28;20479;-72
2021/03/05 11:09:19;;;;;;;7.38;1.13;;;7.00;67.10;;;;;;5096428;28;20056;-70
2021/03/05 11:11:47;;;;;;;7.00;1.20;;;7.10;66.60;;;;;;5094185;28;20035;-76
2021/03/05 11:14:13;;;;;;;1.77;0.70;;;7.20;66.60;;;;;;5101213;28;20073;-78
2021/03/05 11:16:39;;;;;;;2.97;0.98;;;7.30;66.40;;;;;;5109693;28;20120;-78
2021/03/05 11:19:05;;;;;;;2.50;0.70;;;7.30;66.30;;;;;;5110370;28;20086;-78
2021/03/05 11:21:31;;;;;;;7.97;1.20;;;7.40;65.90;;;;;;5098726;28;20039;-78
2021/03/05 11:23:57;;;;;;;2.15;0.65;;;7.50;66.50;;;;;;5095929;28;20047;-78
2021/03/05 11:26:25;;;;;;;4.18;1.30;;;7.50;66.00;;;;;;5100582;28;20382;-78
2021/03/05 11:28:52;;;;;;;5.00;1.10;;;7.60;64.20;;;;;;5102009;28;20036;-79
2021/03/05 11:31:18;;;;;;;7.63;1.35;;;7.60;64.10;;;;;;5111270;28;20484;-77
2021/03/05 11:33:44;;;;;;;4.68;1.38;;;7.60;63.80;;;;;;5105663;28;20020;-77
2021/03/05 11:36:12;;;;;;;1.55;0.85;;;7.60;65.00;;;;;;5111198;28;20092;-76
2021/03/05 11:38:43;;;;;;;5.43;1.13;;;7.60;64.60;;;;;;5112955;28;20035;-75
2021/03/05 11:41:09;;;;;;;2.70;0.82;;;7.70;65.40;;;;;;5111483;28;20107;-73
2021/03/05 11:43:43;;;;;;;3.10;0.82;;;7.60;65.80;;;;;;5110256;28;20496;-75
2021/03/05 11:46:10;;;;;;;1.60;0.80;;;7.60;65.70;;;;;;5112189;28;20026;-75
2021/03/05 11:48:36;;;;;;;2.05;0.82;;;7.60;66.20;;;;;;5113453;28;20030;-75
2021/03/05 11:51:01;;;;;;;2.78;0.70;;;7.60;66.50;;;;;;5107728;28;20036;-75
2021/03/05 11:53:27;;;;;;;3.88;0.90;;;7.60;65.80;;;;;;5112266;28;20031;-75
2021/03/05 11:55:53;;;;;;;1.15;0.60;;;7.70;65.60;;;;;;5113063;28;20031;-70
2021/03/05 11:58:19;;;;;;;2.60;1.00;;;7.80;65.70;;;;;;5112572;28;20096;-69
2021/03/05 12:00:44;;;;;;;4.65;1.50;;;7.80;64.90;;;;;;5108367;28;20039;-70
2021/03/05 12:03:10;;;;;;;3.70;0.70;;;7.90;65.10;;;;;;5106530;28;20543;-71
2021/03/05 12:05:36;;;;;;;2.05;0.88;;;7.90;66.00;;;;;;5112398;28;20093;-70
2021/03/05 12:08:02;;;;;;;11.15;1.60;;;8.00;65.60;;;;;;5111450;27;20092;-70
2021/03/05 12:10:28;;;;;;;2.05;0.88;;;8.00;64.80;;;;;;5109507;28;20024;-70
2021/03/05 12:12:54;;;;;;;3.90;0.75;;;8.00;64.20;;;;;;5101847;28;20035;-70
2021/03/05 12:15:19;;;;;;;2.25;0.80;;;8.00;64.00;;;;;;5111888;28;20039;-70
2021/03/05 12:17:45;;;;;;;4.85;1.23;;;8.00;63.80;;;;;;5112172;28;20096;-69
2021/03/05 12:20:12;;;;;;;1.58;0.90;;;8.10;63.60;;;;;;5111371;28;20513;-70
2021/03/05 12:22:37;;;;;;;3.85;0.98;;;8.10;64.90;;;;;;5111708;27;20046;-70
2021/03/05 12:25:05;;;;;;;11.95;2.05;;;8.10;65.90;;;;;;5111593;28;20028;-69
2021/03/05 12:27:31;;;;;;;2.90;1.40;;;8.10;64.90;;;;;;5111536;28;20028;-69
2021/03/05 12:29:57;;;;;;;3.35;1.15;;;8.20;64.40;;;;;;5111646;28;20031;-70
2021/03/05 12:32:23;;;;;;;3.55;1.17;;;8.20;63.40;;;;;;5111735;28;20027;-70
2021/03/05 12:34:48;;;;;;;5.82;1.10;;;8.30;62.90;;;;;;5111269;28;20028;-72
2021/03/05 12:37:14;;;;;;;4.38;1.60;;;8.30;62.10;;;;;;5098628;28;20699;-75
2021/03/05 12:39:39;;;;;;;6.05;1.45;;;8.30;62.80;;;;;;5111855;28;20391;-74
2021/03/05 12:42:05;;;;;;;4.18;0.90;;;8.30;62.40;;;;;;5111320;28;20070;-74
2021/03/05 12:44:31;;;;;;;3.45;0.88;;;8.40;62.70;;;;;;5112180;28;20042;-74
2021/03/05 12:46:58;;;;;;;7.55;1.38;;;8.40;61.70;;;;;;5111859;28;20394;-74
2021/03/05 12:49:23;;;;;;;3.90;1.05;;;8.40;61.50;;;;;;5111377;28;20035;-73
2021/03/05 12:51:51;;;;;;;6.32;0.85;;;8.40;61.40;;;;;;5112348;28;20374;-74
2021/03/05 12:54:16;;;;;;;6.78;0.95;;;8.50;62.30;;;;;;5111612;28;20032;-73
2021/03/05 12:56:42;;;;;;;9.25;1.20;;;8.50;62.60;;;;;;5106716;28;20043;-73
2021/03/05 12:59:11;;;;;;;4.32;1.30;;;8.60;62.20;;;;;;5107940;28;20043;-74
2021/03/05 13:01:37;;;;;;;4.47;1.08;;;8.60;62.10;;;;;;5109201;28;20547;-73
2021/03/05 13:04:04;;;;;;;3.15;1.05;;;8.70;61.80;;;;;;5100880;28;20141;-73
2021/03/05 13:06:30;;;;;;;7.97;1.05;;;8.70;61.70;;;;;;5109643;28;20379;-75
2021/03/05 13:08:56;;;;;;;3.92;0.93;;;8.70;61.50;;;;;;5111721;28;20028;-75